sensor_id;sensor_type;location;lat;lon;timestamp;P1;durP1;ratioP1;P2;durP2;ratioP2
29280;SDS011;25048;49.590;11.026;2023-02-13T00:00:48;39.33;;;14.43;;
29280;SDS011;25048;49.590;11.026;2023-02-13T00:03:16;34.33;;;13.27;;
29280;SDS011;25048;49.590;11.026;2023-02-13T00:05:43;43.13;;;14.70;;
29280;SDS011;25048;49.590;11.026;2023-02-13T00:08:11;37.33;;;14.53;;
29280;SDS011;25048;49.590;11.026;2023-02-13T00:10:38;39.57;;;14.03;;
29280;SDS011;25048;49.590;11.026;2023-02-13T00:13:06;29.73;;;11.87;;
29280;SDS011;25048;49.590;11.026;2023-02-13T00:15:33;31.73;;;12.17;;
29280;SDS011;25048;49.590;11.026;2023-02-13T00:18:01;33.50;;;13.00;;
29280;SDS011;25048;49.590;11.026;2023-02-13T00:20:29;31.53;;;12.60;;
29280;SDS011;25048;49.590;11.026;2023-02-13T00:23:02;32.57;;;13.83;;
29280;SDS011;25048;49.590;11.026;2023-02-13T00:25:26;37.60;;;13.80;;
29280;SDS011;25048;49.590;11.026;2023-02-13T00:27:53;39.57;;;14.70;;
29280;SDS011;25048;49.590;11.026;2023-02-13T00:30:21;31.00;;;13.93;;
29280;SDS011;25048;49.590;11.026;2023-02-13T00:32:48;37.20;;;13.70;;
29280;SDS011;25048;49.590;11.026;2023-02-13T00:35:16;29.50;;;13.67;;
29280;SDS011;25048;49.590;11.026;2023-02-13T00:37:44;28.47;;;12.87;;
29280;SDS011;25048;49.590;11.026;2023-02-13T00:40:11;25.60;;;12.13;;
29280;SDS011;25048;49.590;11.026;2023-02-13T00:42:39;26.50;;;12.23;;
29280;SDS011;25048;49.590;11.026;2023-02-13T00:45:06;32.27;;;13.10;;
29280;SDS011;25048;49.590;11.026;2023-02-13T00:47:34;26.93;;;11.80;;
29280;SDS011;25048;49.590;11.026;2023-02-13T00:50:02;29.80;;;12.33;;
29280;SDS011;25048;49.590;11.026;2023-02-13T00:52:30;34.43;;;14.00;;
29280;SDS011;25048;49.590;11.026;2023-02-13T00:54:58;30.30;;;13.13;;
29280;SDS011;25048;49.590;11.026;2023-02-13T00:57:25;34.27;;;14.20;;
29280;SDS011;25048;49.590;11.026;2023-02-13T00:59:54;30.03;;;12.83;;
29280;SDS011;25048;49.590;11.026;2023-02-13T01:02:21;32.97;;;12.13;;
29280;SDS011;25048;49.590;11.026;2023-02-13T01:04:49;28.10;;;12.37;;
29280;SDS011;25048;49.590;11.026;2023-02-13T01:07:16;36.47;;;13.33;;
29280;SDS011;25048;49.590;11.026;2023-02-13T01:09:44;38.80;;;14.30;;
29280;SDS011;25048;49.590;11.026;2023-02-13T01:12:11;28.57;;;12.57;;
29280;SDS011;25048;49.590;11.026;2023-02-13T01:14:38;34.80;;;12.80;;
29280;SDS011;25048;49.590;11.026;2023-02-13T01:17:06;30.10;;;15.17;;
29280;SDS011;25048;49.590;11.026;2023-02-13T01:19:33;37.73;;;13.87;;
29280;SDS011;25048;49.590;11.026;2023-02-13T01:22:01;28.40;;;12.00;;
29280;SDS011;25048;49.590;11.026;2023-02-13T01:24:30;35.17;;;13.30;;
29280;SDS011;25048;49.590;11.026;2023-02-13T01:26:58;35.13;;;13.00;;
29280;SDS011;25048;49.590;11.026;2023-02-13T01:29:27;31.30;;;11.87;;
29280;SDS011;25048;49.590;11.026;2023-02-13T01:31:55;84.00;;;72.20;;
29280;SDS011;25048;49.590;11.026;2023-02-13T01:34:22;63.33;;;54.77;;
29280;SDS011;25048;49.590;11.026;2023-02-13T01:36:50;37.97;;;13.83;;
29280;SDS011;25048;49.590;11.026;2023-02-13T01:39:17;32.87;;;13.77;;
29280;SDS011;25048;49.590;11.026;2023-02-13T01:41:45;79.63;;;40.53;;
29280;SDS011;25048;49.590;11.026;2023-02-13T01:47:19;35.33;;;12.53;;
29280;SDS011;25048;49.590;11.026;2023-02-13T01:52:47;30.07;;;11.73;;
29280;SDS011;25048;49.590;11.026;2023-02-13T01:55:17;28.93;;;11.30;;
29280;SDS011;25048;49.590;11.026;2023-02-13T01:57:47;26.47;;;11.73;;
29280;SDS011;25048;49.590;11.026;2023-02-13T02:00:16;22.93;;;10.37;;
29280;SDS011;25048;49.590;11.026;2023-02-13T02:02:52;28.70;;;10.80;;
29280;SDS011;25048;49.590;11.026;2023-02-13T02:05:21;40.10;;;31.87;;
29280;SDS011;25048;49.590;11.026;2023-02-13T02:07:51;31.27;;;21.30;;
29280;SDS011;25048;49.590;11.026;2023-02-13T02:10:20;29.03;;;11.43;;
29280;SDS011;25048;49.590;11.026;2023-02-13T02:15:27;25.03;;;11.80;;
29280;SDS011;25048;49.590;11.026;2023-02-13T02:17:55;25.90;;;9.77;;
29280;SDS011;25048;49.590;11.026;2023-02-13T02:26:18;24.03;;;9.60;;
29280;SDS011;25048;49.590;11.026;2023-02-13T02:29:17;22.27;;;9.93;;
29280;SDS011;25048;49.590;11.026;2023-02-13T02:31:52;25.07;;;10.67;;
29280;SDS011;25048;49.590;11.026;2023-02-13T02:34:26;30.53;;;11.17;;
29280;SDS011;25048;49.590;11.026;2023-02-13T02:43:28;29.80;;;11.63;;
29280;SDS011;25048;49.590;11.026;2023-02-13T02:45:28;24.63;;;10.50;;
29280;SDS011;25048;49.590;11.026;2023-02-13T02:51:01;23.17;;;11.03;;
29280;SDS011;25048;49.590;11.026;2023-02-13T02:53:39;22.77;;;10.37;;
29280;SDS011;25048;49.590;11.026;2023-02-13T02:58:46;38.57;;;34.63;;
29280;SDS011;25048;49.590;11.026;2023-02-13T03:01:33;77.23;;;62.53;;
29280;SDS011;25048;49.590;11.026;2023-02-13T03:07:10;24.33;;;10.93;;
29280;SDS011;25048;49.590;11.026;2023-02-13T03:09:41;27.77;;;10.17;;
29280;SDS011;25048;49.590;11.026;2023-02-13T03:12:30;26.50;;;9.80;;
29280;SDS011;25048;49.590;11.026;2023-02-13T03:15:21;48.63;;;41.93;;
29280;SDS011;25048;49.590;11.026;2023-02-13T03:17:50;99.10;;;29.03;;
29280;SDS011;25048;49.590;11.026;2023-02-13T03:20:52;25.97;;;9.83;;
29280;SDS011;25048;49.590;11.026;2023-02-13T03:23:45;32.13;;;11.50;;
29280;SDS011;25048;49.590;11.026;2023-02-13T03:26:29;25.13;;;10.17;;
29280;SDS011;25048;49.590;11.026;2023-02-13T03:31:58;22.53;;;9.00;;
29280;SDS011;25048;49.590;11.026;2023-02-13T03:34:28;269.50;;;114.63;;
29280;SDS011;25048;49.590;11.026;2023-02-13T03:37:02;22.63;;;9.17;;
29280;SDS011;25048;49.590;11.026;2023-02-13T03:39:55;22.37;;;11.73;;
29280;SDS011;25048;49.590;11.026;2023-02-13T03:45:08;454.03;;;117.37;;
29280;SDS011;25048;49.590;11.026;2023-02-13T03:47:55;349.87;;;111.67;;
29280;SDS011;25048;49.590;11.026;2023-02-13T03:50:25;597.07;;;120.10;;
29280;SDS011;25048;49.590;11.026;2023-02-13T03:53:04;282.07;;;108.33;;
29280;SDS011;25048;49.590;11.026;2023-02-13T03:55:37;428.67;;;108.97;;
29280;SDS011;25048;49.590;11.026;2023-02-13T04:01:23;354.87;;;106.20;;
29280;SDS011;25048;49.590;11.026;2023-02-13T04:03:57;343.80;;;111.00;;
29280;SDS011;25048;49.590;11.026;2023-02-13T04:06:30;380.03;;;109.77;;
29280;SDS011;25048;49.590;11.026;2023-02-13T04:08:59;562.67;;;116.23;;
29280;SDS011;25048;49.590;11.026;2023-02-13T04:11:29;57.17;;;48.60;;
29280;SDS011;25048;49.590;11.026;2023-02-13T04:13:58;376.57;;;110.00;;
29280;SDS011;25048;49.590;11.026;2023-02-13T04:16:31;262.43;;;106.93;;
29280;SDS011;25048;49.590;11.026;2023-02-13T04:19:03;375.90;;;109.80;;
29280;SDS011;25048;49.590;11.026;2023-02-13T04:21:34;425.43;;;114.00;;
29280;SDS011;25048;49.590;11.026;2023-02-13T04:24:03;404.50;;;113.00;;
29280;SDS011;25048;49.590;11.026;2023-02-13T04:26:36;373.87;;;107.17;;
29280;SDS011;25048;49.590;11.026;2023-02-13T04:29:01;21.83;;;9.13;;
29280;SDS011;25048;49.590;11.026;2023-02-13T04:31:29;19.27;;;8.10;;
29280;SDS011;25048;49.590;11.026;2023-02-13T04:33:56;29.73;;;9.10;;
29280;SDS011;25048;49.590;11.026;2023-02-13T04:36:24;18.03;;;8.13;;
29280;SDS011;25048;49.590;11.026;2023-02-13T04:38:51;22.63;;;9.27;;
29280;SDS011;25048;49.590;11.026;2023-02-13T04:41:19;26.50;;;9.83;;
29280;SDS011;25048;49.590;11.026;2023-02-13T04:43:46;27.70;;;9.57;;
29280;SDS011;25048;49.590;11.026;2023-02-13T04:46:16;28.53;;;10.53;;
29280;SDS011;25048;49.590;11.026;2023-02-13T04:48:44;23.40;;;9.00;;
29280;SDS011;25048;49.590;11.026;2023-02-13T04:51:11;28.80;;;9.70;;
29280;SDS011;25048;49.590;11.026;2023-02-13T04:53:40;20.40;;;8.73;;
29280;SDS011;25048;49.590;11.026;2023-02-13T04:56:07;22.60;;;9.13;;
29280;SDS011;25048;49.590;11.026;2023-02-13T04:58:35;28.73;;;9.70;;
29280;SDS011;25048;49.590;11.026;2023-02-13T05:01:09;89.10;;;72.13;;
29280;SDS011;25048;49.590;11.026;2023-02-13T05:03:38;247.63;;;98.37;;
29280;SDS011;25048;49.590;11.026;2023-02-13T05:06:06;268.07;;;107.30;;
29280;SDS011;25048;49.590;11.026;2023-02-13T05:08:34;49.20;;;36.37;;
29280;SDS011;25048;49.590;11.026;2023-02-13T05:11:01;26.87;;;9.07;;
29280;SDS011;25048;49.590;11.026;2023-02-13T05:13:29;27.77;;;19.47;;
29280;SDS011;25048;49.590;11.026;2023-02-13T05:15:56;30.97;;;18.57;;
29280;SDS011;25048;49.590;11.026;2023-02-13T05:18:24;25.33;;;8.80;;
29280;SDS011;25048;49.590;11.026;2023-02-13T05:20:51;31.70;;;9.53;;
29280;SDS011;25048;49.590;11.026;2023-02-13T05:23:20;31.57;;;10.10;;
29280;SDS011;25048;49.590;11.026;2023-02-13T05:25:48;27.60;;;9.67;;
29280;SDS011;25048;49.590;11.026;2023-02-13T05:28:16;30.33;;;9.83;;
29280;SDS011;25048;49.590;11.026;2023-02-13T05:31:01;24.93;;;9.43;;
29280;SDS011;25048;49.590;11.026;2023-02-13T05:33:29;28.83;;;9.10;;
29280;SDS011;25048;49.590;11.026;2023-02-13T05:35:56;32.60;;;10.00;;
29280;SDS011;25048;49.590;11.026;2023-02-13T05:38:24;29.33;;;10.30;;
29280;SDS011;25048;49.590;11.026;2023-02-13T05:40:51;37.33;;;11.43;;
29280;SDS011;25048;49.590;11.026;2023-02-13T05:43:19;26.97;;;9.93;;
29280;SDS011;25048;49.590;11.026;2023-02-13T05:45:46;26.73;;;9.97;;
29280;SDS011;25048;49.590;11.026;2023-02-13T05:48:14;26.53;;;10.43;;
29280;SDS011;25048;49.590;11.026;2023-02-13T05:50:42;32.13;;;11.53;;
29280;SDS011;25048;49.590;11.026;2023-02-13T05:53:11;26.70;;;9.03;;
29280;SDS011;25048;49.590;11.026;2023-02-13T05:55:38;35.00;;;12.73;;
29280;SDS011;25048;49.590;11.026;2023-02-13T05:58:06;40.73;;;11.87;;
29280;SDS011;25048;49.590;11.026;2023-02-13T06:00:34;34.87;;;12.23;;
29280;SDS011;25048;49.590;11.026;2023-02-13T06:03:01;37.10;;;12.30;;
29280;SDS011;25048;49.590;11.026;2023-02-13T06:05:29;35.03;;;12.03;;
29280;SDS011;25048;49.590;11.026;2023-02-13T06:07:56;34.83;;;12.13;;
29280;SDS011;25048;49.590;11.026;2023-02-13T06:10:24;35.80;;;11.80;;
29280;SDS011;25048;49.590;11.026;2023-02-13T06:12:51;32.30;;;11.53;;
29280;SDS011;25048;49.590;11.026;2023-02-13T06:15:19;33.47;;;11.10;;
29280;SDS011;25048;49.590;11.026;2023-02-13T06:17:46;22.17;;;9.60;;
29280;SDS011;25048;49.590;11.026;2023-02-13T06:20:14;32.63;;;11.37;;
29280;SDS011;25048;49.590;11.026;2023-02-13T06:22:41;28.57;;;10.73;;
29280;SDS011;25048;49.590;11.026;2023-02-13T06:25:09;28.00;;;11.00;;
29280;SDS011;25048;49.590;11.026;2023-02-13T06:27:38;29.93;;;10.87;;
29280;SDS011;25048;49.590;11.026;2023-02-13T06:30:06;28.30;;;12.43;;
29280;SDS011;25048;49.590;11.026;2023-02-13T06:32:33;31.83;;;11.70;;
29280;SDS011;25048;49.590;11.026;2023-02-13T06:35:01;38.60;;;12.13;;
29280;SDS011;25048;49.590;11.026;2023-02-13T06:37:28;25.97;;;11.07;;
29280;SDS011;25048;49.590;11.026;2023-02-13T06:39:56;28.07;;;10.40;;
29280;SDS011;25048;49.590;11.026;2023-02-13T06:42:23;27.50;;;10.33;;
29280;SDS011;25048;49.590;11.026;2023-02-13T06:44:51;28.47;;;11.20;;
29280;SDS011;25048;49.590;11.026;2023-02-13T06:47:18;37.97;;;12.90;;
29280;SDS011;25048;49.590;11.026;2023-02-13T06:49:46;44.47;;;13.03;;
29280;SDS011;25048;49.590;11.026;2023-02-13T06:52:13;26.43;;;12.37;;
29280;SDS011;25048;49.590;11.026;2023-02-13T06:54:41;31.10;;;13.13;;
29280;SDS011;25048;49.590;11.026;2023-02-13T06:57:09;37.93;;;12.10;;
29280;SDS011;25048;49.590;11.026;2023-02-13T06:59:36;37.60;;;10.97;;
29280;SDS011;25048;49.590;11.026;2023-02-13T07:02:04;31.20;;;11.77;;
29280;SDS011;25048;49.590;11.026;2023-02-13T07:04:31;27.90;;;11.40;;
29280;SDS011;25048;49.590;11.026;2023-02-13T07:06:59;28.70;;;11.47;;
29280;SDS011;25048;49.590;11.026;2023-02-13T07:09:26;29.27;;;11.37;;
29280;SDS011;25048;49.590;11.026;2023-02-13T07:11:54;33.80;;;10.93;;
29280;SDS011;25048;49.590;11.026;2023-02-13T07:14:21;33.67;;;11.83;;
29280;SDS011;25048;49.590;11.026;2023-02-13T07:16:49;33.83;;;11.53;;
29280;SDS011;25048;49.590;11.026;2023-02-13T07:19:17;28.57;;;10.80;;
29280;SDS011;25048;49.590;11.026;2023-02-13T07:21:44;29.63;;;10.70;;
29280;SDS011;25048;49.590;11.026;2023-02-13T07:24:12;26.03;;;9.97;;
29280;SDS011;25048;49.590;11.026;2023-02-13T07:26:39;32.63;;;10.03;;
29280;SDS011;25048;49.590;11.026;2023-02-13T07:29:07;34.83;;;10.03;;
29280;SDS011;25048;49.590;11.026;2023-02-13T07:31:34;23.10;;;10.03;;
29280;SDS011;25048;49.590;11.026;2023-02-13T07:34:02;45.47;;;10.60;;
29280;SDS011;25048;49.590;11.026;2023-02-13T07:36:29;45.33;;;11.53;;
29280;SDS011;25048;49.590;11.026;2023-02-13T07:38:57;35.90;;;10.63;;
29280;SDS011;25048;49.590;11.026;2023-02-13T07:41:24;31.47;;;8.63;;
29280;SDS011;25048;49.590;11.026;2023-02-13T07:43:52;29.87;;;9.60;;
29280;SDS011;25048;49.590;11.026;2023-02-13T07:46:20;43.83;;;9.67;;
29280;SDS011;25048;49.590;11.026;2023-02-13T07:48:47;45.60;;;10.13;;
29280;SDS011;25048;49.590;11.026;2023-02-13T07:51:16;32.30;;;9.03;;
29280;SDS011;25048;49.590;11.026;2023-02-13T07:53:44;38.83;;;9.37;;
29280;SDS011;25048;49.590;11.026;2023-02-13T07:56:11;15.37;;;8.07;;
29280;SDS011;25048;49.590;11.026;2023-02-13T07:58:39;39.30;;;9.07;;
29280;SDS011;25048;49.590;11.026;2023-02-13T08:01:07;44.07;;;9.47;;
29280;SDS011;25048;49.590;11.026;2023-02-13T08:03:37;35.50;;;9.93;;
29280;SDS011;25048;49.590;11.026;2023-02-13T08:06:04;29.10;;;10.10;;
29280;SDS011;25048;49.590;11.026;2023-02-13T08:08:33;38.03;;;9.70;;
29280;SDS011;25048;49.590;11.026;2023-02-13T08:11:05;35.20;;;9.70;;
29280;SDS011;25048;49.590;11.026;2023-02-13T08:13:52;33.30;;;12.30;;
29280;SDS011;25048;49.590;11.026;2023-02-13T08:16:20;40.83;;;9.17;;
29280;SDS011;25048;49.590;11.026;2023-02-13T08:18:47;40.57;;;9.40;;
29280;SDS011;25048;49.590;11.026;2023-02-13T08:21:15;15.97;;;7.90;;
29280;SDS011;25048;49.590;11.026;2023-02-13T08:23:42;31.13;;;8.63;;
29280;SDS011;25048;49.590;11.026;2023-02-13T08:26:10;38.63;;;9.70;;
29280;SDS011;25048;49.590;11.026;2023-02-13T08:28:37;25.60;;;9.17;;
29280;SDS011;25048;49.590;11.026;2023-02-13T08:31:09;18.33;;;8.77;;
29280;SDS011;25048;49.590;11.026;2023-02-13T08:33:37;22.10;;;9.80;;
29280;SDS011;25048;49.590;11.026;2023-02-13T08:36:06;82.13;;;12.20;;
29280;SDS011;25048;49.590;11.026;2023-02-13T08:38:34;23.40;;;10.10;;
29280;SDS011;25048;49.590;11.026;2023-02-13T08:41:01;30.90;;;8.30;;
29280;SDS011;25048;49.590;11.026;2023-02-13T08:43:29;23.17;;;9.97;;
29280;SDS011;25048;49.590;11.026;2023-02-13T08:45:57;18.03;;;8.80;;
29280;SDS011;25048;49.590;11.026;2023-02-13T08:48:25;25.50;;;8.10;;
29280;SDS011;25048;49.590;11.026;2023-02-13T08:50:53;20.97;;;7.20;;
29280;SDS011;25048;49.590;11.026;2023-02-13T08:53:21;24.57;;;7.43;;
29280;SDS011;25048;49.590;11.026;2023-02-13T08:55:55;29.27;;;8.47;;
29280;SDS011;25048;49.590;11.026;2023-02-13T08:58:23;46.97;;;9.23;;
29280;SDS011;25048;49.590;11.026;2023-02-13T09:00:51;15.57;;;7.87;;
29280;SDS011;25048;49.590;11.026;2023-02-13T09:03:18;23.13;;;7.63;;
29280;SDS011;25048;49.590;11.026;2023-02-13T09:05:46;19.30;;;8.27;;
29280;SDS011;25048;49.590;11.026;2023-02-13T09:08:13;24.97;;;8.23;;
29280;SDS011;25048;49.590;11.026;2023-02-13T09:10:41;20.53;;;7.77;;
29280;SDS011;25048;49.590;11.026;2023-02-13T09:13:09;24.60;;;8.03;;
29280;SDS011;25048;49.590;11.026;2023-02-13T09:15:37;22.70;;;7.73;;
29280;SDS011;25048;49.590;11.026;2023-02-13T09:18:05;20.30;;;6.90;;
29280;SDS011;25048;49.590;11.026;2023-02-13T09:20:33;12.57;;;6.33;;
29280;SDS011;25048;49.590;11.026;2023-02-13T09:23:01;20.43;;;7.43;;
29280;SDS011;25048;49.590;11.026;2023-02-13T09:25:28;18.07;;;7.67;;
29280;SDS011;25048;49.590;11.026;2023-02-13T09:27:56;15.43;;;7.93;;
29280;SDS011;25048;49.590;11.026;2023-02-13T09:30:25;13.53;;;7.67;;
29280;SDS011;25048;49.590;11.026;2023-02-13T09:32:53;25.37;;;8.23;;
29280;SDS011;25048;49.590;11.026;2023-02-13T09:35:21;19.80;;;8.67;;
29280;SDS011;25048;49.590;11.026;2023-02-13T09:37:49;21.83;;;8.83;;
29280;SDS011;25048;49.590;11.026;2023-02-13T09:40:17;23.33;;;9.03;;
29280;SDS011;25048;49.590;11.026;2023-02-13T09:42:47;23.20;;;9.03;;
29280;SDS011;25048;49.590;11.026;2023-02-13T09:45:16;17.87;;;8.40;;
29280;SDS011;25048;49.590;11.026;2023-02-13T09:47:46;21.47;;;8.57;;
29280;SDS011;25048;49.590;11.026;2023-02-13T09:50:30;20.23;;;7.83;;
29280;SDS011;25048;49.590;11.026;2023-02-13T09:52:55;24.67;;;8.83;;
29280;SDS011;25048;49.590;11.026;2023-02-13T09:55:28;14.63;;;7.63;;
29280;SDS011;25048;49.590;11.026;2023-02-13T10:00:50;14.63;;;7.93;;
29280;SDS011;25048;49.590;11.026;2023-02-13T10:03:26;15.00;;;7.77;;
29280;SDS011;25048;49.590;11.026;2023-02-13T10:08:40;15.67;;;8.43;;
29280;SDS011;25048;49.590;11.026;2023-02-13T10:13:59;22.27;;;7.87;;
29280;SDS011;25048;49.590;11.026;2023-02-13T10:16:34;16.97;;;8.50;;
29280;SDS011;25048;49.590;11.026;2023-02-13T10:19:10;14.80;;;7.40;;
29280;SDS011;25048;49.590;11.026;2023-02-13T10:21:43;18.33;;;8.17;;
29280;SDS011;25048;49.590;11.026;2023-02-13T10:24:16;15.10;;;7.03;;
29280;SDS011;25048;49.590;11.026;2023-02-13T10:26:44;14.63;;;8.43;;
29280;SDS011;25048;49.590;11.026;2023-02-13T10:29:20;13.43;;;6.77;;
29280;SDS011;25048;49.590;11.026;2023-02-13T10:32:13;16.83;;;8.07;;
29280;SDS011;25048;49.590;11.026;2023-02-13T10:34:41;17.50;;;7.80;;
29280;SDS011;25048;49.590;11.026;2023-02-13T10:37:17;17.63;;;8.17;;
29280;SDS011;25048;49.590;11.026;2023-02-13T10:39:50;17.77;;;8.27;;
29280;SDS011;25048;49.590;11.026;2023-02-13T10:50:25;29.20;;;10.27;;
29280;SDS011;25048;49.590;11.026;2023-02-13T10:58:40;17.70;;;8.93;;
29280;SDS011;25048;49.590;11.026;2023-02-13T11:01:08;15.23;;;7.70;;
29280;SDS011;25048;49.590;11.026;2023-02-13T11:04:08;14.90;;;8.00;;
29280;SDS011;25048;49.590;11.026;2023-02-13T11:06:59;14.57;;;7.53;;
29280;SDS011;25048;49.590;11.026;2023-02-13T11:09:29;16.40;;;7.67;;
29280;SDS011;25048;49.590;11.026;2023-02-13T11:12:08;20.50;;;8.70;;
29280;SDS011;25048;49.590;11.026;2023-02-13T11:14:29;16.73;;;8.23;;
29280;SDS011;25048;49.590;11.026;2023-02-13T11:16:58;16.70;;;8.23;;
29280;SDS011;25048;49.590;11.026;2023-02-13T11:19:33;17.80;;;7.30;;
29280;SDS011;25048;49.590;11.026;2023-02-13T11:22:11;17.87;;;8.37;;
29280;SDS011;25048;49.590;11.026;2023-02-13T11:24:38;19.37;;;9.20;;
29280;SDS011;25048;49.590;11.026;2023-02-13T11:27:09;19.20;;;8.93;;
29280;SDS011;25048;49.590;11.026;2023-02-13T11:30:03;21.70;;;10.67;;
29280;SDS011;25048;49.590;11.026;2023-02-13T11:32:31;17.37;;;8.57;;
29280;SDS011;25048;49.590;11.026;2023-02-13T11:35:24;23.53;;;11.33;;
29280;SDS011;25048;49.590;11.026;2023-02-13T11:40:48;22.13;;;10.90;;
29280;SDS011;25048;49.590;11.026;2023-02-13T11:43:42;22.60;;;11.10;;
29280;SDS011;25048;49.590;11.026;2023-02-13T11:46:04;20.00;;;11.07;;
29280;SDS011;25048;49.590;11.026;2023-02-13T11:48:36;24.43;;;11.07;;
29280;SDS011;25048;49.590;11.026;2023-02-13T11:51:04;19.23;;;11.33;;
29280;SDS011;25048;49.590;11.026;2023-02-13T11:53:35;34.47;;;13.63;;
29280;SDS011;25048;49.590;11.026;2023-02-13T11:58:39;21.77;;;10.83;;
29280;SDS011;25048;49.590;11.026;2023-02-13T12:03:39;19.90;;;10.23;;
29280;SDS011;25048;49.590;11.026;2023-02-13T12:08:39;34.37;;;11.40;;
29280;SDS011;25048;49.590;11.026;2023-02-13T12:11:52;23.43;;;11.03;;
29280;SDS011;25048;49.590;11.026;2023-02-13T12:13:48;19.50;;;9.73;;
29280;SDS011;25048;49.590;11.026;2023-02-13T12:16:22;19.57;;;10.30;;
29280;SDS011;25048;49.590;11.026;2023-02-13T12:18:49;19.83;;;9.17;;
29280;SDS011;25048;49.590;11.026;2023-02-13T12:21:27;22.87;;;10.00;;
29280;SDS011;25048;49.590;11.026;2023-02-13T12:26:32;19.13;;;9.33;;
29280;SDS011;25048;49.590;11.026;2023-02-13T12:29:09;16.30;;;8.97;;
29280;SDS011;25048;49.590;11.026;2023-02-13T12:31:54;18.13;;;9.13;;
29280;SDS011;25048;49.590;11.026;2023-02-13T12:43:29;15.80;;;8.27;;
29280;SDS011;25048;49.590;11.026;2023-02-13T12:46:21;16.47;;;7.77;;
29280;SDS011;25048;49.590;11.026;2023-02-13T12:49:16;10.70;;;6.73;;
29280;SDS011;25048;49.590;11.026;2023-02-13T12:55:08;16.30;;;8.13;;
29280;SDS011;25048;49.590;11.026;2023-02-13T13:00:21;14.57;;;7.63;;
29280;SDS011;25048;49.590;11.026;2023-02-13T13:08:26;17.00;;;15.27;;
29280;SDS011;25048;49.590;11.026;2023-02-13T13:14:02;84.20;;;77.90;;
29280;SDS011;25048;49.590;11.026;2023-02-13T13:19:36;71.23;;;65.77;;
29280;SDS011;25048;49.590;11.026;2023-02-13T13:22:18;35.80;;;32.57;;
29280;SDS011;25048;49.590;11.026;2023-02-13T13:27:29;107.97;;;100.50;;
29280;SDS011;25048;49.590;11.026;2023-02-13T13:30:05;69.70;;;65.20;;
29280;SDS011;25048;49.590;11.026;2023-02-13T13:32:56;131.73;;;123.73;;
29280;SDS011;25048;49.590;11.026;2023-02-13T13:35:21;84.73;;;79.43;;
29280;SDS011;25048;49.590;11.026;2023-02-13T13:38:07;106.47;;;99.50;;
29280;SDS011;25048;49.590;11.026;2023-02-13T13:40:45;104.83;;;98.43;;
29280;SDS011;25048;49.590;11.026;2023-02-13T13:43:17;93.00;;;87.23;;
29280;SDS011;25048;49.590;11.026;2023-02-13T13:48:42;77.50;;;72.47;;
29280;SDS011;25048;49.590;11.026;2023-02-13T13:51:24;76.53;;;71.50;;
29280;SDS011;25048;49.590;11.026;2023-02-13T14:05:07;155.40;;;144.83;;
29280;SDS011;25048;49.590;11.026;2023-02-13T14:07:38;223.50;;;208.80;;
29280;SDS011;25048;49.590;11.026;2023-02-13T14:15:47;283.30;;;263.50;;
29280;SDS011;25048;49.590;11.026;2023-02-13T14:20:40;284.40;;;265.20;;
29280;SDS011;25048;49.590;11.026;2023-02-13T14:31:28;324.80;;;302.47;;
29280;SDS011;25048;49.590;11.026;2023-02-13T14:36:32;449.87;;;418.53;;
29280;SDS011;25048;49.590;11.026;2023-02-13T14:39:02;499.37;;;463.37;;
29280;SDS011;25048;49.590;11.026;2023-02-13T14:44:24;571.53;;;528.80;;
29280;SDS011;25048;49.590;11.026;2023-02-13T14:47:04;664.60;;;612.23;;
29280;SDS011;25048;49.590;11.026;2023-02-13T14:49:34;699.40;;;644.17;;
29280;SDS011;25048;49.590;11.026;2023-02-13T14:52:05;737.15;;;678.35;;
29280;SDS011;25048;49.590;11.026;2023-02-13T14:54:36;1017.03;;;927.90;;
29280;SDS011;25048;49.590;11.026;2023-02-13T14:57:13;1032.47;;;938.13;;
29280;SDS011;25048;49.590;11.026;2023-02-13T14:59:43;1006.78;;;923.17;;
29280;SDS011;25048;49.590;11.026;2023-02-13T15:02:17;949.92;;;871.25;;
29280;SDS011;25048;49.590;11.026;2023-02-13T15:05:51;1011.47;;;925.57;;
29280;SDS011;25048;49.590;11.026;2023-02-13T15:07:35;1015.67;;;930.77;;
29280;SDS011;25048;49.590;11.026;2023-02-13T15:12:58;1029.80;;;942.45;;
29280;SDS011;25048;49.590;11.026;2023-02-13T15:15:30;1020.78;;;935.48;;
29280;SDS011;25048;49.590;11.026;2023-02-13T15:18:01;1035.13;;;947.03;;
29280;SDS011;25048;49.590;11.026;2023-02-13T15:20:32;1033.50;;;945.73;;
29280;SDS011;25048;49.590;11.026;2023-02-13T15:23:00;1021.50;;;933.33;;
29280;SDS011;25048;49.590;11.026;2023-02-13T15:27:59;995.97;;;910.93;;
29280;SDS011;25048;49.590;11.026;2023-02-13T15:30:34;950.30;;;871.50;;
29280;SDS011;25048;49.590;11.026;2023-02-13T15:33:02;863.37;;;794.27;;
29280;SDS011;25048;49.590;11.026;2023-02-13T15:35:43;836.57;;;768.63;;
29280;SDS011;25048;49.590;11.026;2023-02-13T15:38:24;840.93;;;772.30;;
29280;SDS011;25048;49.590;11.026;2023-02-13T15:40:55;869.60;;;798.87;;
29280;SDS011;25048;49.590;11.026;2023-02-13T15:43:34;852.73;;;781.07;;
29280;SDS011;25048;49.590;11.026;2023-02-13T15:46:05;866.00;;;793.63;;
29280;SDS011;25048;49.590;11.026;2023-02-13T15:48:51;855.83;;;783.07;;
29280;SDS011;25048;49.590;11.026;2023-02-13T15:51:26;816.87;;;749.00;;
29280;SDS011;25048;49.590;11.026;2023-02-13T15:53:57;738.97;;;679.27;;
29280;SDS011;25048;49.590;11.026;2023-02-13T15:56:26;727.93;;;668.70;;
29280;SDS011;25048;49.590;11.026;2023-02-13T15:58:55;714.07;;;655.57;;
29280;SDS011;25048;49.590;11.026;2023-02-13T16:01:25;693.67;;;634.97;;
29280;SDS011;25048;49.590;11.026;2023-02-13T16:04:07;736.87;;;674.37;;
29280;SDS011;25048;49.590;11.026;2023-02-13T16:06:44;681.77;;;624.57;;
29280;SDS011;25048;49.590;11.026;2023-02-13T16:09:23;681.67;;;623.60;;
29280;SDS011;25048;49.590;11.026;2023-02-13T16:12:03;699.17;;;637.20;;
29280;SDS011;25048;49.590;11.026;2023-02-13T16:14:50;662.57;;;601.50;;
29280;SDS011;25048;49.590;11.026;2023-02-13T16:17:21;676.20;;;613.83;;
29280;SDS011;25048;49.590;11.026;2023-02-13T16:19:56;656.97;;;594.70;;
29280;SDS011;25048;49.590;11.026;2023-02-13T16:25:19;688.33;;;568.30;;
29280;SDS011;25048;49.590;11.026;2023-02-13T16:27:48;495.73;;;457.10;;
29280;SDS011;25048;49.590;11.026;2023-02-13T16:30:22;530.67;;;486.47;;
29280;SDS011;25048;49.590;11.026;2023-02-13T16:35:47;500.57;;;458.87;;
29280;SDS011;25048;49.590;11.026;2023-02-13T16:38:24;535.03;;;487.50;;
29280;SDS011;25048;49.590;11.026;2023-02-13T16:41:04;530.27;;;482.27;;
29280;SDS011;25048;49.590;11.026;2023-02-13T16:46:12;540.83;;;488.13;;
29280;SDS011;25048;49.590;11.026;2023-02-13T16:48:46;516.67;;;467.57;;
29280;SDS011;25048;49.590;11.026;2023-02-13T16:51:16;537.47;;;482.07;;
29280;SDS011;25048;49.590;11.026;2023-02-13T16:53:46;516.07;;;462.67;;
29280;SDS011;25048;49.590;11.026;2023-02-13T16:56:15;499.70;;;437.53;;
29280;SDS011;25048;49.590;11.026;2023-02-13T16:58:43;519.30;;;446.67;;
29280;SDS011;25048;49.590;11.026;2023-02-13T17:01:12;524.87;;;419.07;;